This is the latest recevied weather packets stored in our database for station/object W3TMB. If no packets are shown the sender has not sent any weather packets the latest 1 day(s).
| Time | Temp. | Humidity | Pressure | Rain* | Wind** | Luminosity | Snow |
|---|---|---|---|---|---|---|---|
| 1778020642 | 22.78° C | 58% | 1004.4 hPa | 0 mm | 0 m/s | 38 W/m² | - |
| 1778020338 | 22.78° C | 57% | 1004.6 hPa | 0 mm | 1.34 m/s, 239° | 55 W/m² | - |
| 1778020034 | 22.78° C | 58% | 1004.5 hPa | 0 mm | 1.34 m/s, 277° | 56 W/m² | - |
| 1778019730 | 22.78° C | 57% | 1004.5 hPa | 0 mm | 1.34 m/s, 307° | 62 W/m² | - |
| 1778019427 | 23.33° C | 56% | 1004.6 hPa | 0 mm | 1.34 m/s, 342° | 75 W/m² | - |
| 1778019123 | 23.33° C | 55% | 1004.5 hPa | 0 mm | 2.24 m/s, 331° | 114 W/m² | - |
| 1778018821 | 23.89° C | 53% | 1004.7 hPa | 0 mm | 0.89 m/s, 257° | 102 W/m² | - |
| 1778018519 | 23.89° C | 51% | 1004.4 hPa | 0 mm | 0.45 m/s, 327° | 48 W/m² | - |
| 1778018216 | 23.89° C | 50% | 1004.3 hPa | 0 mm | 1.34 m/s, 268° | 26 W/m² | - |
| 1778017914 | 24.44° C | 50% | 1004.4 hPa | 0 mm | 0.45 m/s, 9° | 26 W/m² | - |
| 1778017611 | 24.44° C | 49% | 1004.3 hPa | 0 mm | 0.45 m/s, 91° | 24 W/m² | - |
| 1778017308 | 24.44° C | 50% | 1004.2 hPa | 0 mm | 0 m/s | 35 W/m² | - |
| 1778017006 | 24.44° C | 50% | 1004.2 hPa | 0 mm | 0.89 m/s, 280° | 46 W/m² | - |
| 1778016703 | 25° C | 51% | 1004 hPa | 0 mm | 0.89 m/s, 340° | 69 W/m² | - |
| 1778016398 | 25° C | 49% | 1003.9 hPa | 0 mm | 0.45 m/s, 334° | 125 W/m² | - |
| 1778016096 | 25° C | 49% | 1003.8 hPa | 0 mm | 0.45 m/s, 342° | 134 W/m² | - |
| 1778015793 | 25° C | 47% | 1003.8 hPa | 0 mm | 0.89 m/s, 259° | 58 W/m² | - |
| 1778015490 | 25° C | 47% | 1003.7 hPa | 0 mm | 0.89 m/s, 343° | 73 W/m² | - |
| 1778015187 | 25° C | 47% | 1003.6 hPa | 0 mm | 0.45 m/s, 331° | 121 W/m² | - |
| 1778014884 | 25° C | 47% | 1003.5 hPa | 0 mm | 1.34 m/s, 333° | 163 W/m² | - |
| 1778014581 | 25° C | 47% | 1003.6 hPa | 0 mm | 0.45 m/s, 335° | 124 W/m² | - |
| 1778014279 | 25° C | 50% | 1003.6 hPa | 0 mm | 0.45 m/s, 26° | 86 W/m² | - |
| 1778013976 | 25° C | 48% | 1003.6 hPa | 0 mm | 1.34 m/s, 289° | 87 W/m² | - |
| 1778013673 | 25° C | 45% | 1003.4 hPa | 0 mm | 2.24 m/s, 253° | 150 W/m² | - |
| 1778013370 | 25.56° C | 45% | 1003.8 hPa | 0 mm | 0.89 m/s, 346° | 217 W/m² | - |
* Rain latest hour (hover to see other rain measurements)
** Current wind speed in m/s (hover to see current wind gust speed)